createdAt,value
2022-08-23T00:03:26.104Z,100.00
2022-08-23T00:08:29.359Z,100.00
2022-08-23T00:13:47.864Z,100.00
2022-08-23T00:18:52.588Z,100.00
2022-08-23T00:23:55.349Z,100.00
2022-08-23T00:28:58.034Z,100.00
2022-08-23T00:34:02.061Z,100.00
2022-08-23T00:39:05.543Z,100.00
2022-08-23T00:44:29.563Z,100.00
2022-08-23T00:49:34.943Z,100.00
2022-08-23T00:54:39.329Z,100.00
2022-08-23T00:59:42.252Z,100.00
2022-08-23T01:04:50.696Z,100.00
2022-08-23T01:09:55.775Z,100.00
2022-08-23T01:15:00.765Z,100.00
2022-08-23T01:20:07.761Z,100.00
2022-08-23T01:25:18.698Z,100.00
2022-08-23T01:30:24.567Z,100.00
2022-08-23T01:35:35.536Z,100.00
2022-08-23T01:40:41.355Z,100.00
2022-08-23T01:45:44.180Z,100.00
2022-08-23T01:50:48.401Z,100.00
2022-08-23T01:55:52.494Z,100.00
2022-08-23T02:00:56.400Z,100.00
2022-08-23T02:05:59.822Z,100.00
2022-08-23T02:11:10.091Z,100.00
2022-08-23T02:16:15.149Z,100.00
2022-08-23T02:21:19.169Z,100.00
2022-08-23T02:26:31.132Z,100.00
2022-08-23T02:31:34.656Z,100.00
2022-08-23T02:36:37.891Z,100.00
2022-08-23T02:41:42.672Z,100.00
2022-08-23T02:46:47.507Z,100.00
2022-08-23T02:51:51.099Z,100.00
2022-08-23T02:56:55.313Z,100.00
2022-08-23T03:01:59.324Z,100.00
2022-08-23T03:07:07.446Z,100.00
2022-08-23T03:12:12.813Z,100.00
2022-08-23T03:17:20.223Z,100.00
2022-08-23T03:22:24.261Z,100.00
2022-08-23T03:27:31.531Z,100.00
2022-08-23T03:32:41.358Z,100.00
2022-08-23T03:37:55.311Z,100.00
2022-08-23T03:43:01.224Z,100.00
2022-08-23T03:48:05.866Z,100.00
2022-08-23T03:53:12.323Z,100.00
2022-08-23T03:58:18.120Z,100.00
2022-08-23T04:03:20.855Z,100.00
2022-08-23T04:08:34.548Z,100.00
2022-08-23T04:13:41.507Z,100.00
2022-08-23T04:18:44.463Z,100.00
2022-08-23T04:23:47.976Z,100.00
2022-08-23T04:28:52.003Z,100.00
2022-08-23T04:33:55.572Z,100.00
2022-08-23T04:38:58.339Z,100.00
2022-08-23T04:44:02.657Z,100.00
2022-08-23T04:49:06.487Z,100.00
2022-08-23T04:54:09.303Z,100.00
2022-08-23T04:59:19.610Z,100.00
2022-08-23T05:04:22.361Z,100.00
2022-08-23T05:09:25.121Z,100.00
2022-08-23T05:14:29.146Z,100.00
2022-08-23T05:19:32.636Z,100.00
2022-08-23T05:24:35.292Z,100.00
2022-08-23T05:29:39.328Z,100.00
2022-08-23T05:34:42.689Z,100.00
2022-08-23T05:39:46.722Z,100.00
2022-08-23T05:44:50.744Z,100.00
2022-08-23T05:49:55.511Z,100.00
2022-08-23T05:54:59.028Z,100.00
2022-08-23T06:00:40.494Z,100.00
2022-08-23T06:05:44.384Z,100.00
2022-08-23T06:10:49.316Z,100.00
2022-08-23T06:16:00.719Z,100.00
2022-08-23T06:21:18.288Z,100.00
2022-08-23T06:26:26.043Z,100.00
2022-08-23T06:31:48.932Z,100.00
2022-08-23T06:37:01.399Z,100.00
2022-08-23T06:42:38.324Z,100.00
2022-08-23T06:47:43.276Z,100.00
2022-08-23T06:52:48.219Z,100.00
2022-08-23T06:58:08.518Z,100.00
2022-08-23T07:03:37.237Z,100.00
2022-08-23T07:08:59.527Z,100.00
2022-08-23T07:14:03.892Z,100.00
2022-08-23T07:19:09.063Z,100.00
2022-08-23T07:24:13.443Z,100.00
2022-08-23T07:29:17.439Z,100.00
2022-08-23T07:34:22.440Z,100.00
2022-08-23T07:39:26.311Z,100.00
2022-08-23T07:44:30.006Z,100.00
2022-08-23T07:49:35.357Z,100.00
2022-08-23T07:54:39.581Z,100.00
2022-08-23T08:00:17.628Z,100.00
2022-08-23T08:05:33.759Z,100.00
2022-08-23T08:10:38.252Z,100.00
2022-08-23T08:15:42.363Z,100.00
2022-08-23T08:20:50.171Z,100.00
2022-08-23T08:26:22.918Z,100.00
2022-08-23T08:31:30.514Z,100.00
2022-08-23T08:36:38.097Z,100.00
2022-08-23T08:42:04.602Z,100.00
2022-08-23T08:47:10.543Z,100.00
2022-08-23T08:52:19.643Z,100.00
2022-08-23T08:57:27.413Z,100.00
2022-08-23T09:02:33.729Z,100.00
2022-08-23T09:07:48.298Z,100.00
2022-08-23T09:12:57.377Z,100.00
2022-08-23T09:18:09.032Z,100.00
2022-08-23T09:23:18.424Z,100.00
2022-08-23T09:28:22.301Z,100.00
2022-08-23T09:33:27.100Z,100.00
2022-08-23T09:38:33.825Z,100.00
2022-08-23T09:43:47.109Z,100.00
2022-08-23T09:48:55.043Z,100.00
2022-08-23T09:54:09.054Z,100.00
2022-08-23T09:59:34.067Z,100.00
2022-08-23T10:04:47.202Z,100.00
2022-08-23T10:09:52.043Z,100.00
2022-08-23T10:14:55.446Z,100.00
2022-08-23T10:20:05.639Z,100.00
2022-08-23T10:25:16.130Z,100.00
2022-08-23T10:30:20.327Z,100.00
2022-08-23T10:35:38.227Z,100.00
2022-08-23T10:40:46.734Z,100.00
2022-08-23T10:45:50.390Z,100.00
2022-08-23T10:51:06.648Z,100.00
2022-08-23T10:56:16.164Z,100.00
2022-08-23T11:01:27.458Z,100.00
2022-08-23T11:06:52.072Z,100.00
2022-08-23T11:12:23.060Z,100.00
2022-08-23T11:17:28.679Z,100.00
2022-08-23T11:22:33.525Z,100.00
2022-08-23T11:27:40.811Z,100.00
2022-08-23T11:32:47.845Z,100.00
2022-08-23T11:38:01.627Z,100.00
2022-08-23T11:43:15.149Z,100.00
2022-08-23T11:48:22.976Z,100.00
2022-08-23T11:53:50.168Z,100.00
2022-08-23T11:59:09.087Z,100.00
2022-08-23T12:04:15.119Z,100.00
2022-08-23T12:09:51.138Z,100.00
2022-08-23T12:14:57.409Z,100.00
2022-08-23T12:20:02.040Z,100.00
2022-08-23T12:25:08.858Z,100.00
2022-08-23T12:30:22.649Z,100.00
2022-08-23T12:35:33.568Z,96.06
2022-08-23T12:40:42.111Z,100.00
2022-08-23T12:45:50.191Z,95.44
2022-08-23T12:50:56.865Z,97.22
2022-08-23T12:56:04.390Z,97.37
2022-08-23T13:01:18.206Z,94.37
2022-08-23T13:06:23.444Z,93.09
2022-08-23T13:11:27.008Z,94.30
2022-08-23T13:16:33.709Z,94.65
2022-08-23T13:21:39.574Z,91.66
2022-08-23T13:26:44.205Z,94.73
2022-08-23T13:32:03.178Z,89.46
2022-08-23T13:37:17.525Z,89.44
2022-08-23T13:42:29.489Z,89.43
2022-08-23T13:47:35.843Z,90.41
2022-08-23T13:53:03.086Z,86.30
2022-08-23T13:58:03.209Z,87.57
2022-08-23T14:03:07.829Z,90.09
2022-08-23T14:08:10.821Z,85.86
2022-08-23T14:13:14.373Z,84.20
2022-08-23T14:18:18.912Z,85.58
2022-08-23T14:23:21.565Z,86.84
2022-08-23T14:28:26.169Z,85.62
2022-08-23T14:33:33.660Z,81.84
2022-08-23T14:38:36.389Z,85.60
2022-08-23T14:43:39.066Z,83.64
2022-08-23T14:48:46.625Z,86.39
2022-08-23T14:53:50.344Z,83.45
2022-08-23T14:58:53.043Z,86.03
2022-08-23T15:03:57.086Z,84.01
2022-08-23T15:08:59.796Z,81.36
2022-08-23T15:14:02.655Z,83.05
2022-08-23T15:19:07.508Z,81.17
2022-08-23T15:24:10.154Z,83.95
2022-08-23T15:29:12.844Z,86.05
2022-08-23T15:34:16.866Z,83.17
2022-08-23T15:39:20.853Z,82.58
2022-08-23T15:44:23.549Z,84.73
2022-08-23T15:49:32.850Z,85.92
2022-08-23T15:54:38.150Z,84.15
2022-08-23T15:59:40.875Z,82.21
2022-08-23T16:04:44.955Z,83.05
2022-08-23T16:09:47.710Z,84.89
2022-08-23T16:14:50.370Z,84.06
2022-08-23T16:19:54.423Z,87.91
2022-08-23T16:24:57.318Z,91.88
2022-08-23T16:30:00.001Z,84.45
2022-08-23T16:35:04.485Z,85.71
2022-08-23T16:40:08.836Z,86.15
2022-08-23T16:45:12.324Z,93.11
2022-08-23T16:50:16.428Z,95.57
2022-08-23T16:55:19.294Z,89.64
2022-08-23T17:00:22.254Z,92.18
2022-08-23T17:05:26.775Z,90.44
2022-08-23T17:10:29.682Z,90.28
2022-08-23T17:15:34.408Z,93.32
2022-08-23T17:20:39.685Z,91.05
2022-08-23T17:25:47.453Z,91.91
2022-08-23T17:30:50.251Z,93.02
2022-08-23T17:35:54.544Z,93.94
2022-08-23T17:40:57.510Z,94.58
2022-08-23T17:46:00.208Z,100.00
2022-08-23T17:51:04.324Z,100.00
2022-08-23T17:56:08.014Z,100.00
2022-08-23T18:01:15.318Z,100.00
2022-08-23T18:06:19.901Z,100.00
2022-08-23T18:11:22.861Z,100.00
2022-08-23T18:16:31.726Z,100.00
2022-08-23T18:21:38.913Z,100.00
2022-08-23T18:26:59.685Z,100.00
2022-08-23T18:32:02.438Z,100.00
2022-08-23T18:37:07.172Z,100.00
2022-08-23T18:42:10.547Z,100.00
2022-08-23T18:47:13.248Z,100.00
2022-08-23T18:52:17.332Z,100.00
2022-08-23T18:57:20.032Z,100.00
2022-08-23T19:02:24.037Z,100.00
2022-08-23T19:07:28.181Z,100.00
2022-08-23T19:12:30.824Z,100.00
2022-08-23T19:17:33.488Z,100.00
2022-08-23T19:22:37.958Z,100.00
2022-08-23T19:27:41.467Z,100.00
2022-08-23T19:32:44.998Z,100.00
2022-08-23T19:37:49.435Z,100.00
2022-08-23T19:42:52.104Z,100.00
2022-08-23T19:47:54.838Z,100.00
2022-08-23T19:52:59.337Z,100.00
2022-08-23T19:58:02.922Z,100.00
2022-08-23T20:03:05.760Z,100.00
2022-08-23T20:08:09.813Z,100.00
2022-08-23T20:13:12.707Z,100.00
2022-08-23T20:18:15.443Z,100.00
2022-08-23T20:23:36.795Z,100.00
2022-08-23T20:28:39.927Z,100.00
2022-08-23T20:34:02.569Z,100.00
2022-08-23T20:39:06.697Z,100.00
2022-08-23T20:44:09.666Z,100.00
2022-08-23T20:49:12.820Z,100.00
2022-08-23T20:54:16.993Z,100.00
2022-08-23T20:59:20.392Z,100.00
2022-08-23T21:04:29.312Z,100.00
2022-08-23T21:09:34.381Z,100.00
2022-08-23T21:14:37.029Z,100.00
2022-08-23T21:19:39.677Z,100.00
2022-08-23T21:24:43.665Z,100.00
2022-08-23T21:29:46.306Z,100.00
2022-08-23T21:34:48.937Z,100.00
2022-08-23T21:39:52.980Z,100.00
2022-08-23T21:44:55.631Z,100.00
2022-08-23T21:49:58.667Z,100.00
2022-08-23T21:55:02.644Z,100.00
2022-08-23T22:00:07.521Z,100.00
2022-08-23T22:05:15.784Z,100.00
2022-08-23T22:10:20.939Z,100.00
2022-08-23T22:15:25.534Z,100.00
2022-08-23T22:20:28.358Z,100.00
2022-08-23T22:25:33.085Z,100.00
2022-08-23T22:30:35.776Z,100.00
2022-08-23T22:35:38.660Z,100.00
2022-08-23T22:40:48.362Z,100.00
2022-08-23T22:45:52.417Z,100.00
2022-08-23T22:51:06.149Z,100.00
2022-08-23T22:56:12.248Z,100.00
2022-08-23T23:01:19.639Z,100.00
2022-08-23T23:06:24.413Z,100.00
2022-08-23T23:11:29.394Z,100.00
2022-08-23T23:16:32.195Z,100.00
2022-08-23T23:21:36.276Z,100.00
2022-08-23T23:26:40.453Z,100.00
2022-08-23T23:31:43.164Z,100.00
2022-08-23T23:36:46.325Z,100.00
2022-08-23T23:41:50.314Z,100.00
2022-08-23T23:46:52.981Z,100.00
2022-08-23T23:51:55.608Z,100.00
2022-08-23T23:56:59.733Z,100.00
